Repülésmeteorológia

METAR


Utolsó módosítás időpontja: 2021-09-17 02:50:00
724
SAHU41 HASM 170300
METAR LHSM 170245Z AUTO 01005KT 340V050 9999 OVC022 20/17 Q1011

TAF


Utolsó módosítás időpontja: 2021-09-17 02:05:00
722
FCHU99 LHSM 170200
TAF LHSM 170200Z NIL